createdAt,value
2022-09-28T00:01:09.057Z,4.90
2022-09-28T00:03:37.108Z,4.15
2022-09-28T00:06:10.225Z,4.60
2022-09-28T00:08:37.386Z,4.40
2022-09-28T00:11:06.430Z,4.85
2022-09-28T00:13:33.209Z,4.90
2022-09-28T00:16:07.761Z,4.32
2022-09-28T00:18:35.985Z,4.37
2022-09-28T00:21:12.195Z,5.25
2022-09-28T00:24:01.657Z,4.50
2022-09-28T00:26:30.259Z,5.03
2022-09-28T00:28:59.529Z,4.80
2022-09-28T00:31:28.065Z,5.22
2022-09-28T00:34:00.690Z,5.18
2022-09-28T00:36:30.039Z,4.65
2022-09-28T00:38:57.679Z,5.07
2022-09-28T00:41:27.153Z,5.65
2022-09-28T00:44:15.048Z,5.00
2022-09-28T00:46:41.821Z,5.95
2022-09-28T00:49:15.740Z,6.65
2022-09-28T00:51:44.411Z,6.65
2022-09-28T00:54:13.275Z,6.25
2022-09-28T00:56:42.681Z,6.75
2022-09-28T00:59:09.893Z,7.38
2022-09-28T01:01:37.358Z,7.05
2022-09-28T01:04:08.109Z,6.82
2022-09-28T01:06:36.955Z,7.38
2022-09-28T01:09:07.577Z,7.82
2022-09-28T01:11:37.715Z,8.40
2022-09-28T01:14:14.263Z,8.45
2022-09-28T01:19:59.710Z,8.95
2022-09-28T01:22:47.886Z,9.23
2022-09-28T01:25:26.510Z,9.98
2022-09-28T01:28:05.588Z,10.32
2022-09-28T01:30:42.718Z,10.85
2022-09-28T01:33:14.057Z,10.48
2022-09-28T01:35:57.097Z,10.77
2022-09-28T01:38:49.155Z,10.75
2022-09-28T01:41:17.795Z,11.02
2022-09-28T01:44:02.908Z,11.23
2022-09-28T01:46:37.075Z,11.18
2022-09-28T01:49:09.978Z,10.48
2022-09-28T01:51:43.218Z,10.70
2022-09-28T01:54:21.803Z,10.60
2022-09-28T01:56:55.579Z,9.85
2022-09-28T01:59:29.433Z,8.88
2022-09-28T02:02:25.675Z,10.18
2022-09-28T02:05:02.015Z,9.98
2022-09-28T02:07:40.614Z,9.73
2022-09-28T02:10:13.594Z,9.65
2022-09-28T02:12:56.256Z,9.02
2022-09-28T02:15:30.988Z,9.32
2022-09-28T02:18:00.038Z,9.50
2022-09-28T02:20:26.701Z,8.38
2022-09-28T02:22:59.419Z,8.55
2022-09-28T02:25:33.714Z,8.38
2022-09-28T02:28:09.769Z,9.07
2022-09-28T02:30:39.146Z,8.80
2022-09-28T02:33:12.916Z,8.80
2022-09-28T02:35:41.624Z,8.75
2022-09-28T02:38:10.317Z,8.18
2022-09-28T02:40:38.089Z,9.07
2022-09-28T02:43:23.586Z,9.15
2022-09-28T02:46:23.995Z,9.05
2022-09-28T02:49:21.451Z,8.38
2022-09-28T02:52:14.715Z,9.02
2022-09-28T02:54:55.281Z,10.13
2022-09-28T02:58:04.104Z,10.25
2022-09-28T03:00:32.798Z,10.55
2022-09-28T03:03:24.110Z,11.93
2022-09-28T03:05:53.715Z,11.05
2022-09-28T03:08:32.972Z,11.93
2022-09-28T03:11:04.555Z,11.32
2022-09-28T03:13:32.997Z,11.00
2022-09-28T03:16:15.116Z,12.45
2022-09-28T03:18:44.351Z,11.38
2022-09-28T03:21:12.466Z,11.23
2022-09-28T03:23:43.380Z,12.40
2022-09-28T03:26:12.658Z,11.43
2022-09-28T03:28:39.561Z,10.35
2022-09-28T03:31:09.295Z,11.50
2022-09-28T03:33:39.075Z,10.18
2022-09-28T03:36:06.125Z,10.90
2022-09-28T03:38:32.848Z,10.55
2022-09-28T03:41:00.500Z,10.65
2022-09-28T03:43:32.510Z,10.38
2022-09-28T03:46:09.894Z,10.02
2022-09-28T03:48:41.793Z,10.50
2022-09-28T03:51:11.198Z,9.77
2022-09-28T03:53:40.125Z,10.52
2022-09-28T03:56:15.533Z,10.52
2022-09-28T03:58:42.560Z,10.82
2022-09-28T04:01:16.840Z,9.80
2022-09-28T04:03:47.630Z,9.55
2022-09-28T04:06:14.706Z,10.45
2022-09-28T04:08:41.308Z,10.10
2022-09-28T04:11:08.574Z,8.90
2022-09-28T04:13:41.907Z,8.73
2022-09-28T04:16:11.540Z,9.60
2022-09-28T04:18:39.975Z,9.25
2022-09-28T04:21:15.310Z,8.63
2022-09-28T04:24:01.338Z,8.57
2022-09-28T04:26:28.305Z,7.65
2022-09-28T04:29:14.999Z,8.02
2022-09-28T04:31:43.576Z,6.95
2022-09-28T04:34:21.652Z,7.70
2022-09-28T04:36:49.260Z,7.38
2022-09-28T04:39:19.461Z,7.25
2022-09-28T04:41:52.532Z,7.10
2022-09-28T04:44:23.335Z,6.85
2022-09-28T04:46:56.241Z,6.45
2022-09-28T04:49:29.202Z,5.82
2022-09-28T04:52:07.970Z,5.80
2022-09-28T04:54:36.249Z,5.97
2022-09-28T04:57:03.709Z,5.20
2022-09-28T04:59:30.372Z,5.28
2022-09-28T05:01:57.102Z,5.85
2022-09-28T05:04:31.062Z,5.38
2022-09-28T05:07:09.671Z,5.75
2022-09-28T05:09:38.563Z,4.95
2022-09-28T05:12:05.355Z,5.32
2022-09-28T05:14:33.318Z,5.32
2022-09-28T05:16:59.883Z,4.53
2022-09-28T05:19:26.475Z,5.00
2022-09-28T05:22:04.052Z,4.88
2022-09-28T05:24:39.662Z,4.57
2022-09-28T05:27:06.502Z,4.28
2022-09-28T05:29:33.830Z,4.90
2022-09-28T05:32:29.738Z,4.22
2022-09-28T05:35:06.481Z,4.60
2022-09-28T05:37:42.294Z,4.10
2022-09-28T05:40:09.534Z,3.95
2022-09-28T05:42:37.762Z,3.60
2022-09-28T05:45:08.472Z,3.72
2022-09-28T05:47:43.826Z,3.40
2022-09-28T05:50:11.957Z,3.58
2022-09-28T05:52:39.341Z,3.65
2022-09-28T05:55:07.714Z,3.17
2022-09-28T05:57:34.823Z,3.30
2022-09-28T06:00:09.169Z,3.20
2022-09-28T06:03:06.723Z,3.30
2022-09-28T06:05:36.213Z,3.22
2022-09-28T06:08:05.095Z,3.50
2022-09-28T06:10:32.872Z,3.00
2022-09-28T06:13:01.559Z,2.97
2022-09-28T06:15:30.931Z,2.80
2022-09-28T06:18:14.860Z,2.80
2022-09-28T06:21:02.556Z,2.97
2022-09-28T06:23:53.127Z,3.10
2022-09-28T06:26:20.273Z,2.80
2022-09-28T06:28:47.026Z,2.50
2022-09-28T06:31:13.686Z,2.53
2022-09-28T06:33:46.183Z,3.42
2022-09-28T06:36:13.319Z,2.63
2022-09-28T06:38:39.960Z,2.88
2022-09-28T06:41:06.712Z,2.90
2022-09-28T06:43:49.820Z,2.95
2022-09-28T06:46:45.641Z,3.03
2022-09-28T06:49:19.575Z,2.92
2022-09-28T06:52:04.794Z,3.00
2022-09-28T06:55:04.337Z,2.15
2022-09-28T06:57:41.143Z,2.13
2022-09-28T07:00:08.463Z,2.40
2022-09-28T07:02:35.395Z,2.47
2022-09-28T07:05:28.977Z,2.75
2022-09-28T07:08:17.462Z,1.60
2022-09-28T07:11:22.430Z,1.60
2022-09-28T07:14:18.087Z,1.60
2022-09-28T07:17:12.677Z,1.38
2022-09-28T07:19:41.670Z,1.83
2022-09-28T07:22:08.319Z,1.55
2022-09-28T07:24:36.396Z,1.60
2022-09-28T07:27:25.474Z,1.38
2022-09-28T07:30:06.974Z,1.40
2022-09-28T07:33:00.818Z,1.48
2022-09-28T07:35:55.411Z,1.58
2022-09-28T07:38:29.134Z,1.80
2022-09-28T07:41:11.523Z,1.77
2022-09-28T07:43:44.960Z,1.83
2022-09-28T07:46:14.842Z,1.63
2022-09-28T07:48:49.470Z,1.80
2022-09-28T07:51:34.964Z,2.25
2022-09-28T07:54:21.944Z,2.10
2022-09-28T07:56:54.155Z,1.95
2022-09-28T07:59:40.150Z,1.70
2022-09-28T08:02:28.365Z,1.75
2022-09-28T08:04:59.769Z,2.10
2022-09-28T08:07:26.539Z,1.50
2022-09-28T08:10:04.542Z,1.63
2022-09-28T08:12:47.153Z,1.60
2022-09-28T08:15:36.844Z,1.50
2022-09-28T08:18:23.319Z,1.80
2022-09-28T08:21:10.769Z,1.88
2022-09-28T08:23:42.372Z,1.90
2022-09-28T08:26:12.184Z,1.80
2022-09-28T08:28:43.436Z,1.73
2022-09-28T08:31:30.206Z,1.65
2022-09-28T08:34:20.053Z,2.03
2022-09-28T08:37:06.021Z,1.55
2022-09-28T08:39:55.758Z,1.80
2022-09-28T08:42:44.851Z,1.45
2022-09-28T08:45:33.618Z,1.75
2022-09-28T08:49:06.591Z,1.80
2022-09-28T08:52:03.662Z,1.65
2022-09-28T08:54:54.878Z,1.53
2022-09-28T08:57:39.637Z,2.10
2022-09-28T09:00:11.551Z,2.58
2022-09-28T09:02:39.762Z,1.67
2022-09-28T09:05:20.823Z,1.63
2022-09-28T09:08:54.631Z,1.63
2022-09-28T09:11:24.157Z,1.80
2022-09-28T09:14:20.942Z,1.80
2022-09-28T09:17:09.938Z,1.88
2022-09-28T09:20:18.894Z,2.22
2022-09-28T09:23:00.843Z,2.05
2022-09-28T09:25:43.138Z,3.20
2022-09-28T09:28:32.609Z,3.83
2022-09-28T09:31:22.455Z,2.55
2022-09-28T09:34:03.395Z,2.50
2022-09-28T09:36:55.208Z,2.30
2022-09-28T09:40:02.066Z,2.55
2022-09-28T09:42:53.414Z,2.20
2022-09-28T09:46:20.235Z,1.80
2022-09-28T09:49:23.997Z,1.90
2022-09-28T09:52:02.953Z,2.05
2022-09-28T09:54:34.310Z,1.58
2022-09-28T09:57:15.421Z,1.88
2022-09-28T10:00:01.740Z,1.75
2022-09-28T10:02:48.528Z,1.52
2022-09-28T10:05:34.925Z,1.25
2022-09-28T10:08:09.293Z,1.13
2022-09-28T10:10:45.023Z,1.30
2022-09-28T10:13:13.500Z,1.40
2022-09-28T10:15:43.378Z,1.00
2022-09-28T10:18:18.119Z,1.00
2022-09-28T10:21:03.328Z,1.30
2022-09-28T10:24:02.788Z,1.38
2022-09-28T10:26:40.407Z,1.33
2022-09-28T10:29:17.769Z,1.20
2022-09-28T10:31:49.533Z,1.20
2022-09-28T10:34:29.184Z,1.35
2022-09-28T10:37:11.224Z,1.50
2022-09-28T10:40:47.529Z,1.50
2022-09-28T10:43:28.748Z,1.02
2022-09-28T10:46:14.963Z,1.00
2022-09-28T10:48:59.982Z,1.17
2022-09-28T10:51:43.375Z,0.95
2022-09-28T10:54:20.484Z,1.23
2022-09-28T10:56:51.461Z,1.20
2022-09-28T10:59:29.157Z,1.17
2022-09-28T11:02:31.275Z,1.13
2022-09-28T11:05:07.441Z,1.00
2022-09-28T11:07:47.898Z,1.40
2022-09-28T11:10:22.978Z,1.10
2022-09-28T11:12:52.594Z,1.40
2022-09-28T11:15:27.095Z,1.20
2022-09-28T11:17:53.656Z,1.00
2022-09-28T11:20:27.394Z,0.77
2022-09-28T11:23:20.392Z,1.00
2022-09-28T11:26:02.817Z,0.73
2022-09-28T11:28:35.866Z,1.20
2022-09-28T11:31:08.492Z,0.90
2022-09-28T11:34:24.900Z,1.00
2022-09-28T11:37:13.628Z,0.90
2022-09-28T11:40:16.388Z,0.85
2022-09-28T11:42:53.725Z,0.77
2022-09-28T11:45:38.997Z,0.90
2022-09-28T11:48:15.541Z,1.02
2022-09-28T11:50:46.960Z,0.93
2022-09-28T11:53:30.947Z,0.75
2022-09-28T11:56:29.231Z,0.90
2022-09-28T11:59:00.367Z,0.55
2022-09-28T12:01:47.619Z,0.60
2022-09-28T12:04:33.895Z,0.80
2022-09-28T12:07:12.513Z,0.80
2022-09-28T12:09:54.287Z,0.90
2022-09-28T12:12:33.488Z,1.00
2022-09-28T12:15:19.057Z,1.00
2022-09-28T12:17:54.072Z,0.70
2022-09-28T12:20:27.110Z,0.77
2022-09-28T12:22:59.416Z,0.80
2022-09-28T12:25:39.590Z,0.80
2022-09-28T12:28:16.296Z,1.38
2022-09-28T12:30:45.513Z,0.88
2022-09-28T12:33:17.318Z,0.90
2022-09-28T12:36:14.867Z,1.13
2022-09-28T12:38:41.383Z,1.52
2022-09-28T12:41:39.157Z,1.70
2022-09-28T12:44:20.087Z,0.80
2022-09-28T12:47:09.629Z,1.38
2022-09-28T12:52:47.685Z,1.20
2022-09-28T12:55:48.096Z,1.00
2022-09-28T12:58:36.690Z,0.50
2022-09-28T13:01:21.254Z,0.57
2022-09-28T13:04:02.668Z,0.50
2022-09-28T13:06:34.998Z,1.00
2022-09-28T13:09:21.527Z,0.60
2022-09-28T13:12:09.950Z,0.93
2022-09-28T13:15:00.902Z,0.75
2022-09-28T13:17:51.812Z,1.33
2022-09-28T13:20:46.062Z,0.82
2022-09-28T13:23:26.194Z,0.80
2022-09-28T13:25:56.605Z,0.80
2022-09-28T13:28:27.269Z,0.60
2022-09-28T13:33:56.136Z,0.98
2022-09-28T13:36:28.607Z,1.15
2022-09-28T13:38:57.110Z,1.45
2022-09-28T13:41:40.380Z,1.40
2022-09-28T13:44:16.674Z,1.48
2022-09-28T13:46:49.479Z,1.58
2022-09-28T13:49:32.665Z,1.30
2022-09-28T13:52:27.057Z,1.50
2022-09-28T13:55:13.398Z,1.08
2022-09-28T13:57:57.933Z,1.10
2022-09-28T14:00:38.124Z,1.17
2022-09-28T14:03:13.217Z,1.10
2022-09-28T14:06:05.806Z,1.65
2022-09-28T14:08:39.557Z,2.20
2022-09-28T14:11:41.981Z,1.75
2022-09-28T14:14:08.532Z,1.40
2022-09-28T14:16:36.828Z,1.45
2022-09-28T14:19:07.167Z,1.67
2022-09-28T14:21:52.025Z,0.88
2022-09-28T14:24:30.151Z,0.55
2022-09-28T14:27:19.707Z,0.65
2022-09-28T14:29:49.686Z,0.60
2022-09-28T14:32:16.111Z,0.80
2022-09-28T14:34:54.564Z,1.40
2022-09-28T14:38:14.382Z,2.55
2022-09-28T14:41:10.912Z,3.83
2022-09-28T14:43:49.394Z,4.45
2022-09-28T14:46:18.771Z,6.43
2022-09-28T14:49:01.725Z,5.43
2022-09-28T14:51:30.956Z,1.70
2022-09-28T14:54:12.515Z,1.80
2022-09-28T14:56:54.329Z,1.40
2022-09-28T14:59:24.946Z,1.45
2022-09-28T15:01:57.946Z,1.05
2022-09-28T15:04:28.899Z,1.00
2022-09-28T15:06:55.777Z,0.98
2022-09-28T15:09:31.864Z,0.90
2022-09-28T15:12:04.147Z,0.85
2022-09-28T15:14:41.590Z,0.60
2022-09-28T15:17:13.346Z,0.50
2022-09-28T15:20:29.834Z,0.60
2022-09-28T15:22:58.455Z,0.47
2022-09-28T15:25:32.599Z,0.60
2022-09-28T15:28:17.190Z,0.50
2022-09-28T15:30:43.827Z,0.80
2022-09-28T15:33:43.369Z,0.47
2022-09-28T15:36:19.014Z,0.50
2022-09-28T15:39:00.223Z,0.50
2022-09-28T15:41:27.893Z,0.50
2022-09-28T15:44:23.424Z,0.50
2022-09-28T15:46:52.063Z,0.70
2022-09-28T15:49:35.619Z,0.60
2022-09-28T15:52:05.161Z,0.70
2022-09-28T15:54:43.360Z,0.70
2022-09-28T15:57:29.515Z,0.43
2022-09-28T15:59:59.491Z,0.40
2022-09-28T16:02:27.153Z,0.50
2022-09-28T16:05:00.752Z,0.60
2022-09-28T16:07:33.286Z,0.40
2022-09-28T16:10:26.122Z,0.30
2022-09-28T16:12:56.812Z,0.32
2022-09-28T16:15:24.785Z,0.38
2022-09-28T16:18:01.347Z,0.70
2022-09-28T16:20:31.991Z,0.60
2022-09-28T16:23:06.032Z,0.60
2022-09-28T16:25:39.071Z,0.50
2022-09-28T16:28:06.510Z,0.55
2022-09-28T16:30:34.543Z,0.68
2022-09-28T16:33:05.535Z,0.45
2022-09-28T16:35:41.201Z,0.50
2022-09-28T16:38:14.373Z,0.57
2022-09-28T16:40:42.924Z,0.50
2022-09-28T16:43:39.389Z,0.35
2022-09-28T16:46:13.206Z,0.73
2022-09-28T16:48:51.564Z,0.50
2022-09-28T16:51:20.138Z,0.50
2022-09-28T16:54:07.808Z,0.70
2022-09-28T16:56:36.080Z,0.60
2022-09-28T16:59:03.171Z,0.73
2022-09-28T17:01:31.198Z,0.70
2022-09-28T17:04:02.118Z,0.80
2022-09-28T17:06:28.718Z,0.68
2022-09-28T17:08:56.580Z,0.70
2022-09-28T17:11:24.828Z,0.68
2022-09-28T17:13:58.861Z,0.75
2022-09-28T17:16:51.011Z,0.57
2022-09-28T17:19:28.576Z,0.60
2022-09-28T17:21:55.047Z,0.85
2022-09-28T17:24:21.897Z,0.68
2022-09-28T17:26:50.865Z,0.70
2022-09-28T17:29:17.997Z,0.70
2022-09-28T17:31:46.238Z,0.77
2022-09-28T17:34:16.201Z,0.80
2022-09-28T17:36:43.793Z,0.60
2022-09-28T17:39:15.667Z,0.70
2022-09-28T17:41:42.385Z,0.80
2022-09-28T17:44:12.185Z,0.68
2022-09-28T17:46:45.781Z,0.50
2022-09-28T17:49:12.586Z,0.65
2022-09-28T17:51:39.242Z,0.50
2022-09-28T17:54:08.823Z,0.60
2022-09-28T17:56:36.238Z,0.50
2022-09-28T17:59:10.064Z,0.68
2022-09-28T18:01:39.074Z,0.70
2022-09-28T18:04:08.682Z,0.60
2022-09-28T18:06:42.199Z,0.90
2022-09-28T18:09:13.693Z,0.80
2022-09-28T18:11:43.248Z,0.88
2022-09-28T18:14:20.398Z,1.00
2022-09-28T18:16:46.975Z,1.10
2022-09-28T18:19:13.644Z,0.80
2022-09-28T18:21:40.116Z,0.82
2022-09-28T18:24:09.501Z,1.00
2022-09-28T18:26:37.085Z,0.77
2022-09-28T18:29:03.585Z,0.80
2022-09-28T18:31:30.137Z,0.98
2022-09-28T18:34:01.266Z,1.05
2022-09-28T18:36:29.492Z,1.10
2022-09-28T18:38:57.284Z,1.00
2022-09-28T18:41:24.120Z,0.73
2022-09-28T18:43:53.058Z,0.90
2022-09-28T18:46:19.668Z,1.00
2022-09-28T18:48:47.694Z,1.33
2022-09-28T18:51:14.481Z,0.90
2022-09-28T18:53:45.607Z,0.90
2022-09-28T18:56:18.425Z,1.50
2022-09-28T18:58:46.373Z,1.00
2022-09-28T19:01:31.925Z,1.10
2022-09-28T19:04:01.455Z,1.17
2022-09-28T19:06:28.382Z,1.10
2022-09-28T19:08:55.881Z,0.82
2022-09-28T19:11:22.876Z,0.90
2022-09-28T19:13:55.461Z,0.90
2022-09-28T19:16:25.305Z,0.90
2022-09-28T19:18:53.611Z,0.70
2022-09-28T19:21:21.216Z,0.88
2022-09-28T19:23:50.059Z,1.05
2022-09-28T19:26:22.831Z,5.32
2022-09-28T19:28:50.146Z,2.40
2022-09-28T19:31:17.195Z,1.48
2022-09-28T19:33:48.454Z,1.38
2022-09-28T19:36:21.921Z,1.35
2022-09-28T19:38:48.641Z,1.80
2022-09-28T19:41:43.689Z,1.27
2022-09-28T19:44:27.138Z,2.00
2022-09-28T19:46:58.734Z,1.98
2022-09-28T19:49:27.587Z,1.60
2022-09-28T19:52:14.177Z,2.20
2022-09-28T19:54:44.465Z,1.73
2022-09-28T19:57:12.335Z,1.70
2022-09-28T19:59:39.123Z,2.78
2022-09-28T20:02:07.140Z,2.15
2022-09-28T20:04:34.829Z,1.90
2022-09-28T20:07:01.887Z,2.28
2022-09-28T20:09:28.641Z,2.40
2022-09-28T20:11:55.491Z,2.05
2022-09-28T20:14:31.241Z,1.88
2022-09-28T20:17:00.813Z,2.15
2022-09-28T20:19:27.306Z,2.65
2022-09-28T20:21:54.780Z,2.55
2022-09-28T20:24:25.630Z,2.30
2022-09-28T20:26:52.121Z,2.40
2022-09-28T20:29:18.750Z,2.00
2022-09-28T20:31:45.661Z,2.05
2022-09-28T20:34:13.046Z,2.40
2022-09-28T20:36:42.526Z,2.00
2022-09-28T20:39:10.395Z,2.40
2022-09-28T20:41:36.987Z,2.78
2022-09-28T20:44:06.509Z,2.42
2022-09-28T20:46:36.359Z,2.38
2022-09-28T20:49:03.922Z,2.35
2022-09-28T20:51:30.948Z,2.30
2022-09-28T20:54:02.080Z,2.55
2022-09-28T20:56:31.539Z,2.88
2022-09-28T20:58:58.016Z,2.70
2022-09-28T21:01:30.455Z,2.80
2022-09-28T21:04:03.161Z,2.75
2022-09-28T21:06:31.974Z,3.10
2022-09-28T21:08:58.666Z,2.70
2022-09-28T21:11:26.994Z,2.70
2022-09-28T21:13:58.103Z,2.67
2022-09-28T21:16:26.595Z,2.70
2022-09-28T21:18:53.115Z,2.85
2022-09-28T21:21:21.415Z,2.65
2022-09-28T21:23:52.442Z,2.75
2022-09-28T21:26:25.030Z,2.70
2022-09-28T21:28:59.075Z,2.70
2022-09-28T21:31:29.328Z,2.47
2022-09-28T21:33:58.050Z,2.83
2022-09-28T21:36:25.562Z,2.60
2022-09-28T21:38:53.425Z,3.05
2022-09-28T21:41:19.913Z,3.00
2022-09-28T21:43:48.335Z,2.92
2022-09-28T21:46:15.010Z,3.10
2022-09-28T21:48:41.578Z,2.92
2022-09-28T21:51:12.499Z,3.25
2022-09-28T21:53:42.004Z,3.92
2022-09-28T21:56:11.666Z,3.47
2022-09-28T21:58:38.540Z,3.63
2022-09-28T22:01:08.327Z,4.07
2022-09-28T22:03:52.690Z,3.67
2022-09-28T22:06:21.168Z,3.35
2022-09-28T22:08:49.032Z,3.25
2022-09-28T22:11:27.027Z,3.70
2022-09-28T22:13:57.362Z,3.80
2022-09-28T22:16:26.485Z,3.58
2022-09-28T22:18:53.398Z,3.72
2022-09-28T22:21:25.829Z,3.63
2022-09-28T22:23:52.781Z,3.78
2022-09-28T22:26:24.682Z,3.53
2022-09-28T22:28:52.735Z,3.65
2022-09-28T22:31:23.310Z,4.38
2022-09-28T22:33:54.730Z,4.15
2022-09-28T22:36:21.444Z,4.05
2022-09-28T22:38:48.919Z,3.70
2022-09-28T22:41:17.212Z,4.07
2022-09-28T22:43:49.796Z,3.85
2022-09-28T22:46:22.294Z,4.00
2022-09-28T22:48:51.172Z,4.10
2022-09-28T22:51:17.662Z,3.95
2022-09-28T22:53:53.333Z,3.80
2022-09-28T22:56:19.865Z,4.35
2022-09-28T22:58:47.252Z,3.90
2022-09-28T23:01:15.124Z,4.70
2022-09-28T23:03:44.693Z,4.82
2022-09-28T23:06:13.115Z,5.40
2022-09-28T23:08:39.982Z,4.63
2022-09-28T23:11:06.634Z,5.35
2022-09-28T23:13:33.566Z,4.90
2022-09-28T23:16:02.572Z,5.38
2022-09-28T23:18:33.053Z,4.93
2022-09-28T23:21:05.103Z,5.55
2022-09-28T23:23:32.352Z,5.75
2022-09-28T23:25:59.976Z,6.70
2022-09-28T23:28:27.119Z,6.70
2022-09-28T23:30:54.094Z,6.28
2022-09-28T23:33:21.790Z,6.70
2022-09-28T23:35:48.689Z,7.03
2022-09-28T23:38:20.321Z,6.43
2022-09-28T23:40:47.423Z,6.35
2022-09-28T23:43:14.819Z,6.22
2022-09-28T23:45:45.578Z,5.88
2022-09-28T23:48:15.190Z,6.10
2022-09-28T23:50:43.432Z,6.63
2022-09-28T23:53:11.932Z,6.53
2022-09-28T23:55:41.269Z,6.78
2022-09-28T23:58:07.869Z,6.72
